createdAt,value
2018-03-04T00:01:02.223Z,60.54
2018-03-04T00:03:37.492Z,60.75
2018-03-04T00:06:11.689Z,60.73
2018-03-04T00:08:46.795Z,60.93
2018-03-04T00:11:21.800Z,60.86
2018-03-04T00:13:57.291Z,60.85
2018-03-04T00:16:32.035Z,60.98
2018-03-04T00:19:07.588Z,61.07
2018-03-04T00:21:42.688Z,60.89
2018-03-04T00:24:17.052Z,61.17
2018-03-04T00:26:52.299Z,61.11
2018-03-04T00:29:27.036Z,61.23
2018-03-04T00:32:02.745Z,61.40
2018-03-04T00:34:37.826Z,61.53
2018-03-04T00:37:12.887Z,61.81
2018-03-04T00:39:48.057Z,62.15
2018-03-04T00:42:22.879Z,62.34
2018-03-04T00:44:58.491Z,62.53
2018-03-04T00:47:33.560Z,62.56
2018-03-04T00:50:08.738Z,62.68
2018-03-04T00:52:43.834Z,62.55
2018-03-04T00:55:19.195Z,62.73
2018-03-04T00:57:54.237Z,62.54
2018-03-04T01:00:28.823Z,62.45
2018-03-04T01:03:03.812Z,62.63
2018-03-04T01:05:38.852Z,62.46
2018-03-04T01:08:14.182Z,62.60
2018-03-04T01:10:48.520Z,62.88
2018-03-04T01:13:23.667Z,62.98
2018-03-04T01:15:59.091Z,63.16
2018-03-04T01:18:35.107Z,63.17
2018-03-04T01:21:10.276Z,63.55
2018-03-04T01:23:45.219Z,63.82
2018-03-04T01:26:20.015Z,63.86
2018-03-04T01:28:55.123Z,63.98
2018-03-04T01:31:30.408Z,64.16
2018-03-04T01:34:05.696Z,64.18
2018-03-04T01:36:40.975Z,64.30
2018-03-04T01:39:15.396Z,64.31
2018-03-04T01:41:52.606Z,64.47
2018-03-04T01:44:27.590Z,64.64
2018-03-04T01:47:02.847Z,65.01
2018-03-04T01:49:37.991Z,65.02
2018-03-04T01:52:12.901Z,64.80
2018-03-04T01:54:48.021Z,64.89
2018-03-04T01:57:23.211Z,65.11
2018-03-04T01:59:57.857Z,65.47
2018-03-04T02:02:32.536Z,65.70
2018-03-04T02:05:07.868Z,65.58
2018-03-04T02:07:42.859Z,65.70
2018-03-04T02:10:18.047Z,66.06
2018-03-04T02:12:53.307Z,66.20
2018-03-04T02:15:28.371Z,66.11
2018-03-04T02:18:03.968Z,66.11
2018-03-04T02:20:39.286Z,66.19
2018-03-04T02:23:14.235Z,66.07
2018-03-04T02:25:49.412Z,65.66
2018-03-04T02:28:24.000Z,65.47
2018-03-04T02:30:59.065Z,65.55
2018-03-04T02:33:34.224Z,65.96
2018-03-04T02:36:09.075Z,66.32
2018-03-04T02:38:44.237Z,66.49
2018-03-04T02:41:19.920Z,66.55
2018-03-04T02:43:54.468Z,66.73
2018-03-04T02:46:29.956Z,66.91
2018-03-04T02:49:05.023Z,66.83
2018-03-04T02:51:40.061Z,66.92
2018-03-04T02:54:15.109Z,67.17
2018-03-04T02:56:51.379Z,67.46
2018-03-04T02:59:26.357Z,67.52
2018-03-04T03:02:01.113Z,67.64
2018-03-04T03:04:36.364Z,67.52
2018-03-04T03:07:11.638Z,67.45
2018-03-04T03:09:46.920Z,67.82
2018-03-04T03:12:22.125Z,68.01
2018-03-04T03:14:57.072Z,68.39
2018-03-04T03:17:32.275Z,68.35
2018-03-04T03:20:07.476Z,68.40
2018-03-04T03:22:42.347Z,68.55
2018-03-04T03:25:17.417Z,68.44
2018-03-04T03:27:52.979Z,68.54
2018-03-04T03:30:27.649Z,68.72
2018-03-04T03:33:02.696Z,68.91
2018-03-04T03:35:37.564Z,68.98
2018-03-04T03:38:12.511Z,69.11
2018-03-04T03:40:47.279Z,69.27
2018-03-04T03:43:22.235Z,69.49
2018-03-04T03:45:57.531Z,69.41
2018-03-04T03:48:32.583Z,69.63
2018-03-04T03:51:07.343Z,69.54
2018-03-04T03:53:42.419Z,69.41
2018-03-04T03:56:17.431Z,69.42
2018-03-04T03:58:52.379Z,69.29
2018-03-04T04:01:27.363Z,69.28
2018-03-04T04:04:02.644Z,69.33
2018-03-04T04:06:37.643Z,69.56
2018-03-04T04:09:12.624Z,69.70
2018-03-04T04:11:47.904Z,69.62
2018-03-04T04:14:23.062Z,69.56
2018-03-04T04:16:58.325Z,69.30
2018-03-04T04:19:32.995Z,69.15
2018-03-04T04:22:08.531Z,69.31
2018-03-04T04:24:43.252Z,69.25
2018-03-04T04:27:18.326Z,69.24
2018-03-04T04:29:53.212Z,69.20
2018-03-04T04:32:29.284Z,69.29
2018-03-04T04:35:03.872Z,69.37
2018-03-04T04:37:38.343Z,69.49
2018-03-04T04:40:13.591Z,69.65
2018-03-04T04:42:48.299Z,69.71
2018-03-04T04:45:23.501Z,69.83
2018-03-04T04:47:57.849Z,70.25
2018-03-04T04:50:33.409Z,70.52
2018-03-04T04:53:08.464Z,70.63
2018-03-04T04:55:43.599Z,70.85
2018-03-04T04:58:18.991Z,71.18
2018-03-04T05:00:53.700Z,71.32
2018-03-04T05:03:28.551Z,71.39
2018-03-04T05:06:04.063Z,71.61
2018-03-04T05:08:38.635Z,72.00
2018-03-04T05:11:13.903Z,72.04
2018-03-04T05:13:49.348Z,71.96
2018-03-04T05:16:24.423Z,72.01
2018-03-04T05:18:59.702Z,71.96
2018-03-04T05:21:35.419Z,71.86
2018-03-04T05:24:10.407Z,71.78
2018-03-04T05:26:45.071Z,71.58
2018-03-04T05:29:20.036Z,71.73
2018-03-04T05:31:54.908Z,71.50
2018-03-04T05:34:30.304Z,71.38
2018-03-04T05:37:05.688Z,71.23
2018-03-04T05:39:40.448Z,71.31
2018-03-04T05:42:15.439Z,71.53
2018-03-04T05:44:49.831Z,71.70
2018-03-04T05:47:24.609Z,71.69
2018-03-04T05:49:59.834Z,71.73
2018-03-04T05:52:34.599Z,71.81
2018-03-04T05:55:09.563Z,71.72
2018-03-04T05:57:44.635Z,71.48
2018-03-04T06:00:19.003Z,71.49
2018-03-04T06:02:53.973Z,71.85
2018-03-04T06:05:29.124Z,72.24
2018-03-04T06:08:05.871Z,72.53
2018-03-04T06:10:40.735Z,72.90
2018-03-04T06:13:15.984Z,72.56
2018-03-04T06:15:51.825Z,72.39
2018-03-04T06:18:27.520Z,72.64
2018-03-04T06:21:02.761Z,72.72
2018-03-04T06:23:37.856Z,73.03
2018-03-04T06:26:12.855Z,73.14
2018-03-04T06:28:47.702Z,73.30
2018-03-04T06:31:22.788Z,73.40
2018-03-04T06:33:57.967Z,73.52
2018-03-04T06:36:32.739Z,73.77
2018-03-04T06:39:08.271Z,73.93
2018-03-04T06:41:43.000Z,74.13
2018-03-04T06:44:17.783Z,74.15
2018-03-04T06:46:52.862Z,74.37
2018-03-04T06:49:27.738Z,74.62
2018-03-04T06:52:02.603Z,74.93
2018-03-04T06:54:37.647Z,75.08
2018-03-04T06:57:12.631Z,75.23
2018-03-04T06:59:47.790Z,75.28
2018-03-04T07:02:22.807Z,75.53
2018-03-04T07:04:57.996Z,75.74
2018-03-04T07:07:32.735Z,75.93
2018-03-04T07:10:08.075Z,76.07
2018-03-04T07:12:42.925Z,76.16
2018-03-04T07:15:18.678Z,75.92
2018-03-04T07:17:53.954Z,75.95
2018-03-04T07:20:28.919Z,75.84
2018-03-04T07:23:04.535Z,75.79
2018-03-04T07:25:39.933Z,75.95
2018-03-04T07:28:14.932Z,75.80
2018-03-04T07:30:50.041Z,75.73
2018-03-04T07:33:25.692Z,75.75
2018-03-04T07:36:01.037Z,75.95
2018-03-04T07:38:36.401Z,76.06
2018-03-04T07:41:11.527Z,76.22
2018-03-04T07:43:46.840Z,76.35
2018-03-04T07:46:21.834Z,76.21
2018-03-04T07:48:56.740Z,75.86
2018-03-04T07:51:31.604Z,75.86
2018-03-04T07:54:06.418Z,75.95
2018-03-04T07:56:41.292Z,75.93
2018-03-04T07:59:16.339Z,76.41
2018-03-04T08:01:52.324Z,76.64
2018-03-04T08:04:27.288Z,76.81
2018-03-04T08:07:02.248Z,76.80
2018-03-04T08:09:37.711Z,76.68
2018-03-04T08:12:12.869Z,76.81
2018-03-04T08:14:48.015Z,76.68
2018-03-04T08:17:22.991Z,76.68
2018-03-04T08:19:57.438Z,76.89
2018-03-04T08:22:31.903Z,76.94
2018-03-04T08:25:18.112Z,76.82
2018-03-04T08:28:04.287Z,76.90
2018-03-04T08:30:38.907Z,77.00
2018-03-04T08:33:14.183Z,76.78
2018-03-04T08:35:49.233Z,76.89
2018-03-04T08:38:24.843Z,76.88
2018-03-04T08:40:59.307Z,76.47
2018-03-04T08:43:34.379Z,76.17
2018-03-04T08:46:09.679Z,76.09
2018-03-04T08:48:45.036Z,76.39
2018-03-04T08:51:19.908Z,76.44
2018-03-04T08:53:55.215Z,76.28
2018-03-04T08:56:30.275Z,76.15
2018-03-04T08:59:05.456Z,76.19
2018-03-04T09:01:40.906Z,76.23
2018-03-04T09:04:15.937Z,75.85
2018-03-04T09:06:52.258Z,75.89
2018-03-04T09:09:27.966Z,75.39
2018-03-04T09:12:02.516Z,74.77
2018-03-04T09:14:38.112Z,74.49
2018-03-04T09:17:13.134Z,74.61
2018-03-04T09:19:48.129Z,74.49
2018-03-04T09:22:23.255Z,73.93
2018-03-04T09:24:58.170Z,73.79
2018-03-04T09:27:33.343Z,73.84
2018-03-04T09:30:08.259Z,73.71
2018-03-04T09:32:43.232Z,73.67
2018-03-04T09:35:18.039Z,73.71
2018-03-04T09:37:53.694Z,74.26
2018-03-04T09:40:28.347Z,74.59
2018-03-04T09:43:03.980Z,74.77
2018-03-04T09:45:39.006Z,74.56
2018-03-04T09:48:14.020Z,74.18
2018-03-04T09:50:49.368Z,74.23
2018-03-04T09:53:24.366Z,74.09
2018-03-04T09:55:59.366Z,73.85
2018-03-04T09:58:34.214Z,73.48
2018-03-04T10:01:09.132Z,73.21
2018-03-04T10:03:44.155Z,73.51
2018-03-04T10:06:19.139Z,73.55
2018-03-04T10:08:54.728Z,73.53
2018-03-04T10:11:29.875Z,73.53
2018-03-04T10:14:05.377Z,73.50
2018-03-04T10:16:40.331Z,73.29
2018-03-04T10:19:15.460Z,73.17
2018-03-04T10:21:50.539Z,72.98
2018-03-04T10:24:25.543Z,73.00
2018-03-04T10:27:00.610Z,73.13
2018-03-04T10:29:35.679Z,72.65
2018-03-04T10:32:10.724Z,72.33
2018-03-04T10:34:45.597Z,72.17
2018-03-04T10:37:20.643Z,71.76
2018-03-04T10:39:55.536Z,71.42
2018-03-04T10:42:31.248Z,71.29
2018-03-04T10:45:05.592Z,71.53
2018-03-04T10:47:40.820Z,71.64
2018-03-04T10:50:16.031Z,71.05
2018-03-04T10:52:51.207Z,71.32
2018-03-04T10:55:26.150Z,71.44
2018-03-04T10:58:00.631Z,71.49
2018-03-04T11:00:41.405Z,71.92
2018-03-04T11:03:16.114Z,71.55
2018-03-04T11:05:52.343Z,71.26
2018-03-04T11:08:27.423Z,71.23
2018-03-04T11:11:02.489Z,71.22
2018-03-04T11:13:37.746Z,71.04
2018-03-04T11:16:13.508Z,70.42
2018-03-04T11:18:48.354Z,69.17
2018-03-04T11:21:23.533Z,68.78
2018-03-04T11:23:58.274Z,67.18
2018-03-04T11:26:33.248Z,66.78
2018-03-04T11:29:08.628Z,66.32
2018-03-04T11:31:43.495Z,65.49
2018-03-04T11:34:18.764Z,66.40
2018-03-04T11:36:53.414Z,66.77
2018-03-04T11:39:28.385Z,66.85
2018-03-04T11:42:03.539Z,66.39
2018-03-04T11:44:37.873Z,65.62
2018-03-04T11:47:12.699Z,65.43
2018-03-04T11:49:47.351Z,65.78
2018-03-04T11:52:22.162Z,65.93
2018-03-04T11:54:58.365Z,66.45
2018-03-04T11:57:33.538Z,66.96
2018-03-04T12:00:08.703Z,66.97
2018-03-04T12:02:43.878Z,67.60
2018-03-04T12:05:18.694Z,68.44
2018-03-04T12:07:53.706Z,68.38
2018-03-04T12:10:28.752Z,68.40
2018-03-04T12:13:03.730Z,68.35
2018-03-04T12:15:38.907Z,68.34
2018-03-04T12:18:13.849Z,68.38
2018-03-04T12:20:48.982Z,68.59
2018-03-04T12:23:24.400Z,68.67
2018-03-04T12:25:59.647Z,68.14
2018-03-04T12:28:34.520Z,67.40
2018-03-04T12:31:09.486Z,66.50
2018-03-04T12:33:44.652Z,65.94
2018-03-04T12:36:19.691Z,66.01
2018-03-04T12:38:54.745Z,65.47
2018-03-04T12:41:29.691Z,65.26
2018-03-04T12:44:04.874Z,64.86
2018-03-04T12:46:39.700Z,64.89
2018-03-04T12:49:14.344Z,64.30
2018-03-04T12:51:49.444Z,63.74
2018-03-04T12:54:24.450Z,62.71
2018-03-04T12:56:59.831Z,62.85
2018-03-04T12:59:35.239Z,63.16
2018-03-04T13:02:10.072Z,63.20
2018-03-04T13:04:45.459Z,62.75
2018-03-04T13:07:20.070Z,62.21
2018-03-04T13:09:54.799Z,61.42
2018-03-04T13:12:29.860Z,61.69
2018-03-04T13:15:04.992Z,61.97
2018-03-04T13:17:40.111Z,62.36
2018-03-04T13:20:15.220Z,62.47
2018-03-04T13:22:51.196Z,62.60
2018-03-04T13:25:26.520Z,62.78
2018-03-04T13:28:01.871Z,62.78
2018-03-04T13:30:36.564Z,63.07
2018-03-04T13:33:11.544Z,62.13
2018-03-04T13:35:46.146Z,63.23
2018-03-04T13:38:21.067Z,63.78
2018-03-04T13:40:56.046Z,64.03
2018-03-04T13:43:30.999Z,64.11
2018-03-04T13:46:06.653Z,63.76
2018-03-04T13:48:40.974Z,63.32
2018-03-04T13:51:16.147Z,63.46
2018-03-04T13:53:53.024Z,63.05
2018-03-04T13:56:27.703Z,62.83
2018-03-04T13:59:02.740Z,63.29
2018-03-04T14:01:37.575Z,63.23
2018-03-04T14:04:13.891Z,63.01
2018-03-04T14:06:49.126Z,63.03
2018-03-04T14:09:23.859Z,63.19
2018-03-04T14:11:58.951Z,63.23
2018-03-04T14:14:33.970Z,62.73
2018-03-04T14:17:09.133Z,63.12
2018-03-04T14:19:44.592Z,63.67
2018-03-04T14:22:19.554Z,64.22
2018-03-04T14:24:54.983Z,64.52
2018-03-04T14:27:29.834Z,64.75
2018-03-04T14:30:04.343Z,65.04
2018-03-04T14:32:38.719Z,65.27
2018-03-04T14:35:14.043Z,65.05
2018-03-04T14:37:49.208Z,66.21
2018-03-04T14:40:24.713Z,66.67
2018-03-04T14:42:59.639Z,67.17
2018-03-04T14:45:35.071Z,67.26
2018-03-04T14:48:10.087Z,67.41
2018-03-04T14:50:45.153Z,67.56
2018-03-04T14:53:20.100Z,67.67
2018-03-04T14:55:55.171Z,67.50
2018-03-04T14:58:30.740Z,67.34
2018-03-04T15:01:06.070Z,67.46
2018-03-04T15:03:40.891Z,67.52
2018-03-04T15:06:15.904Z,67.30
2018-03-04T15:08:50.759Z,66.77
2018-03-04T15:11:25.792Z,66.47
2018-03-04T15:14:00.997Z,66.48
2018-03-04T15:16:35.789Z,66.69
2018-03-04T15:19:11.012Z,66.87
2018-03-04T15:21:46.617Z,67.05
2018-03-04T15:24:22.162Z,67.58
2018-03-04T15:26:57.264Z,67.51
2018-03-04T15:29:31.818Z,67.76
2018-03-04T15:32:06.936Z,67.97
2018-03-04T15:34:41.675Z,68.90
2018-03-04T15:37:16.920Z,68.74
2018-03-04T15:39:52.239Z,68.93
2018-03-04T15:42:26.844Z,68.91
2018-03-04T15:45:01.381Z,69.08
2018-03-04T15:47:36.827Z,69.01
2018-03-04T15:50:11.683Z,68.20
2018-03-04T15:52:47.312Z,68.94
2018-03-04T15:55:21.987Z,68.72
2018-03-04T15:57:57.049Z,68.56
2018-03-04T16:00:32.829Z,70.07
2018-03-04T16:03:08.065Z,69.37
2018-03-04T16:05:43.103Z,69.61
2018-03-04T16:08:18.333Z,70.36
2018-03-04T16:10:53.460Z,69.30
2018-03-04T16:13:28.520Z,70.84
2018-03-04T16:16:03.650Z,70.96
2018-03-04T16:18:39.049Z,71.71
2018-03-04T16:21:13.993Z,71.34
2018-03-04T16:23:48.504Z,70.72
2018-03-04T16:26:23.652Z,71.72
2018-03-04T16:28:59.204Z,71.36
2018-03-04T16:31:34.060Z,71.19
2018-03-04T16:34:09.235Z,71.59
2018-03-04T16:36:44.413Z,72.75
2018-03-04T16:39:19.936Z,72.89
2018-03-04T16:41:55.312Z,73.70
2018-03-04T16:44:30.560Z,73.67
2018-03-04T16:47:04.929Z,72.79
2018-03-04T16:49:40.135Z,73.40
2018-03-04T16:52:14.564Z,73.00
2018-03-04T16:54:50.984Z,72.64
2018-03-04T16:57:26.706Z,72.12
2018-03-04T17:00:01.380Z,72.76
2018-03-04T17:02:36.418Z,73.77
2018-03-04T17:05:11.920Z,73.68
2018-03-04T17:07:46.775Z,73.76
2018-03-04T17:10:22.085Z,73.41
2018-03-04T17:12:57.304Z,73.33
2018-03-04T17:15:32.459Z,74.68
2018-03-04T17:18:07.878Z,74.56
2018-03-04T17:20:42.512Z,74.03
2018-03-04T17:23:17.599Z,73.45
2018-03-04T17:25:53.496Z,73.91
2018-03-04T17:28:28.534Z,74.47
2018-03-04T17:31:03.955Z,75.07
2018-03-04T17:33:38.585Z,75.32
2018-03-04T17:36:14.196Z,75.64
2018-03-04T17:38:48.767Z,76.02
2018-03-04T17:41:23.907Z,76.30
2018-03-04T17:43:59.244Z,76.45
2018-03-04T17:46:34.116Z,76.64
2018-03-04T17:49:09.159Z,76.89
2018-03-04T17:51:44.128Z,77.40
2018-03-04T17:54:19.169Z,77.58
2018-03-04T17:56:53.532Z,77.69
2018-03-04T17:59:28.516Z,77.65
2018-03-04T18:02:03.564Z,77.85
2018-03-04T18:04:39.319Z,78.14
2018-03-04T18:07:14.662Z,78.37
2018-03-04T18:09:50.301Z,78.49
2018-03-04T18:12:25.270Z,78.65
2018-03-04T18:15:00.707Z,78.70
2018-03-04T18:17:35.683Z,78.75
2018-03-04T18:20:10.734Z,78.70
2018-03-04T18:22:45.816Z,78.99
2018-03-04T18:25:20.580Z,79.33
2018-03-04T18:27:55.483Z,79.75
2018-03-04T18:30:30.204Z,80.31
2018-03-04T18:33:05.582Z,80.52
2018-03-04T18:35:40.538Z,80.57
2018-03-04T18:38:15.635Z,80.57
2018-03-04T18:40:50.769Z,80.61
2018-03-04T18:43:25.709Z,80.65
2018-03-04T18:46:01.303Z,80.69
2018-03-04T18:48:36.839Z,80.68
2018-03-04T18:51:12.947Z,80.69
2018-03-04T18:53:47.971Z,80.73
2018-03-04T18:56:22.947Z,80.58
2018-03-04T18:58:58.296Z,80.32
2018-03-04T19:01:33.289Z,80.08
2018-03-04T19:04:08.623Z,79.94
2018-03-04T19:06:43.700Z,79.97
2018-03-04T19:09:18.654Z,80.00
2018-03-04T19:11:53.896Z,80.40
2018-03-04T19:14:28.944Z,80.86
2018-03-04T19:17:03.651Z,81.24
2018-03-04T19:19:38.908Z,81.45
2018-03-04T19:22:14.323Z,81.79
2018-03-04T19:24:49.496Z,82.00
2018-03-04T19:27:24.633Z,82.12
2018-03-04T19:29:59.648Z,82.53
2018-03-04T19:32:34.019Z,83.08
2018-03-04T19:35:08.854Z,83.43
2018-03-04T19:37:43.475Z,83.50
2018-03-04T19:40:18.775Z,83.50
2018-03-04T19:42:54.056Z,83.88
2018-03-04T19:45:29.803Z,84.01
2018-03-04T19:48:05.073Z,84.01
2018-03-04T19:50:40.735Z,84.02
2018-03-04T19:53:15.747Z,83.97
2018-03-04T19:55:50.808Z,83.77
2018-03-04T19:58:25.988Z,83.66
2018-03-04T20:01:01.443Z,83.72
2018-03-04T20:03:36.464Z,83.74
2018-03-04T20:06:11.725Z,83.98
2018-03-04T20:08:47.076Z,84.10
2018-03-04T20:11:21.741Z,84.08
2018-03-04T20:13:56.952Z,84.18
2018-03-04T20:16:32.376Z,84.15
2018-03-04T20:19:06.860Z,84.49
2018-03-04T20:21:41.346Z,84.84
2018-03-04T20:24:16.556Z,84.96
2018-03-04T20:26:51.680Z,84.85
2018-03-04T20:29:26.844Z,84.73
2018-03-04T20:32:01.969Z,84.71
2018-03-04T20:34:36.739Z,84.85
2018-03-04T20:37:11.918Z,84.94
2018-03-04T20:39:47.461Z,85.08
2018-03-04T20:42:22.494Z,84.97
2018-03-04T20:44:57.841Z,84.87
2018-03-04T20:47:32.675Z,84.43
2018-03-04T20:50:07.652Z,84.37
2018-03-04T20:52:42.764Z,84.47
2018-03-04T20:55:17.644Z,84.39
2018-03-04T20:57:53.954Z,84.67
2018-03-04T21:00:28.648Z,84.51
2018-03-04T21:03:03.996Z,84.41
2018-03-04T21:05:38.971Z,84.30
2018-03-04T21:08:13.964Z,83.93
2018-03-04T21:10:49.144Z,83.95
2018-03-04T21:13:24.102Z,83.97
2018-03-04T21:15:58.907Z,83.95
2018-03-04T21:18:34.467Z,83.95
2018-03-04T21:21:09.339Z,84.12
2018-03-04T21:23:44.336Z,84.68
2018-03-04T21:26:19.376Z,85.18
2018-03-04T21:28:54.282Z,85.63
2018-03-04T21:31:29.767Z,85.61
2018-03-04T21:34:05.200Z,85.49
2018-03-04T21:36:40.163Z,85.45
2018-03-04T21:39:15.615Z,85.20
2018-03-04T21:41:50.358Z,85.53
2018-03-04T21:44:25.266Z,85.73
2018-03-04T21:47:00.775Z,85.75
2018-03-04T21:49:35.637Z,86.06
2018-03-04T21:52:11.050Z,85.98
2018-03-04T21:54:46.845Z,86.03
2018-03-04T21:57:21.837Z,86.09
2018-03-04T21:59:57.000Z,86.12
2018-03-04T22:02:31.895Z,85.81
2018-03-04T22:05:06.887Z,85.81
2018-03-04T22:07:41.938Z,85.87
2018-03-04T22:10:16.891Z,86.08
2018-03-04T22:12:52.072Z,86.29
2018-03-04T22:15:27.054Z,86.42
2018-03-04T22:18:02.156Z,86.52
2018-03-04T22:20:37.325Z,86.79
2018-03-04T22:23:12.259Z,86.73
2018-03-04T22:25:47.339Z,86.87
2018-03-04T22:28:22.312Z,86.81
2018-03-04T22:30:57.552Z,86.89
2018-03-04T22:33:32.191Z,86.84
2018-03-04T22:36:07.257Z,87.08
2018-03-04T22:38:42.331Z,87.72
2018-03-04T22:41:17.859Z,88.28
2018-03-04T22:43:54.288Z,88.69
2018-03-04T22:46:29.262Z,88.60
2018-03-04T22:49:04.700Z,88.19
2018-03-04T22:51:39.494Z,87.83
2018-03-04T22:54:14.598Z,87.30
2018-03-04T22:56:50.068Z,87.19
2018-03-04T22:59:25.075Z,86.92
2018-03-04T23:02:00.277Z,86.96
2018-03-04T23:04:35.263Z,87.52
2018-03-04T23:07:10.511Z,87.97
2018-03-04T23:09:45.251Z,88.18
2018-03-04T23:12:20.450Z,88.43
2018-03-04T23:14:55.960Z,88.64
2018-03-04T23:17:30.933Z,88.92
2018-03-04T23:20:05.934Z,89.40
2018-03-04T23:22:41.193Z,89.84
2018-03-04T23:25:16.429Z,90.03
2018-03-04T23:27:51.509Z,90.54
2018-03-04T23:30:27.140Z,90.85
2018-03-04T23:33:02.055Z,91.16
2018-03-04T23:35:37.057Z,91.41
2018-03-04T23:38:12.479Z,91.81
2018-03-04T23:40:47.418Z,92.16
2018-03-04T23:43:22.417Z,92.37
2018-03-04T23:45:57.336Z,92.67
2018-03-04T23:48:32.597Z,93.08
2018-03-04T23:51:07.557Z,93.28
2018-03-04T23:53:42.641Z,93.42
2018-03-04T23:56:18.171Z,93.75
2018-03-04T23:58:55.133Z,93.80
